Time;durP1;ratioP1;P1;durP2;ratioP2;P2;SDS_P1;SDS_P2;PMS_P1;PMS_P2;Temp;Humidity;BMP_temperature;BMP_pressure;BME280_temperature;BME280_humidity;BME280_pressure;Samples;Min_cycle;Max_cycle;Signal;HPM_P1;HPM_P2
2023/07/07 00:01:15;;;;;;;2.78;1.63;;;20.70;48.10;;;;;;5016838;28;20052;-78
2023/07/07 00:03:41;;;;;;;1.92;1.45;;;20.70;48.30;;;;;;5049575;28;20044;-79
2023/07/07 00:06:07;;;;;;;3.42;1.60;;;20.70;48.40;;;;;;5053725;28;20243;-78
2023/07/07 00:08:33;;;;;;;2.47;1.65;;;20.60;48.30;;;;;;5041796;28;20041;-78
2023/07/07 00:11:00;;;;;;;2.72;1.65;;;20.50;48.80;;;;;;5045174;28;20031;-78
2023/07/07 00:13:26;;;;;;;2.80;1.50;;;20.50;48.30;;;;;;5041552;28;20036;-78
2023/07/07 00:16:02;;;;;;;2.67;1.90;;;20.50;48.40;;;;;;5061349;28;20495;-78
2023/07/07 00:18:29;;;;;;;3.15;1.83;;;20.40;48.40;;;;;;5042234;28;20036;-78
2023/07/07 00:20:58;;;;;;;1.80;1.50;;;20.40;48.50;;;;;;5041722;28;20029;-78
2023/07/07 00:23:25;;;;;;;1.85;1.75;;;20.40;48.60;;;;;;5053985;28;20449;-77
2023/07/07 00:26:02;;;;;;;2.58;1.50;;;20.30;48.50;;;;;;5052344;28;20122;-77
2023/07/07 00:28:30;;;;;;;3.28;2.00;;;20.30;48.70;;;;;;5060396;28;20433;-77
2023/07/07 00:30:56;;;;;;;2.90;1.92;;;20.20;48.50;;;;;;5042652;28;20025;-76
2023/07/07 00:33:22;;;;;;;1.92;1.73;;;20.20;48.70;;;;;;5055340;28;20049;-77
2023/07/07 00:35:49;;;;;;;2.58;1.50;;;20.20;48.80;;;;;;5035315;28;20037;-80
2023/07/07 00:38:17;;;;;;;1.95;1.58;;;20.10;48.70;;;;;;5027241;28;20517;-77
2023/07/07 00:40:44;;;;;;;2.15;1.38;;;20.10;48.80;;;;;;5042411;28;20036;-77
2023/07/07 00:43:16;;;;;;;2.58;2.17;;;20.00;48.70;;;;;;5038878;28;20492;-77
2023/07/07 00:45:43;;;;;;;2.40;1.48;;;20.00;48.90;;;;;;5023351;28;20025;-77
2023/07/07 00:48:20;;;;;;;3.05;1.88;;;19.90;48.80;;;;;;5042730;28;20037;-77
2023/07/07 00:50:58;;;;;;;3.13;1.95;;;19.90;49.00;;;;;;5037254;28;20270;-77
2023/07/07 00:53:24;;;;;;;2.13;1.60;;;19.90;49.10;;;;;;5027507;28;20032;-77
2023/07/07 00:56:02;;;;;;;3.55;1.60;;;19.80;49.00;;;;;;5027727;28;20119;-77
2023/07/07 00:58:29;;;;;;;2.70;1.65;;;19.80;49.20;;;;;;5009634;28;20373;-78
2023/07/07 01:01:01;;;;;;;1.88;1.63;;;19.80;49.30;;;;;;5053387;28;20071;-77
2023/07/07 01:03:39;;;;;;;3.33;2.65;;;19.70;49.20;;;;;;5023185;28;20093;-77
2023/07/07 01:06:08;;;;;;;2.55;2.05;;;19.70;49.40;;;;;;5047132;28;20033;-77
2023/07/07 01:08:38;;;;;;;2.72;1.50;;;19.60;49.20;;;;;;5026404;28;20049;-77
2023/07/07 01:11:04;;;;;;;2.92;2.10;;;19.60;49.40;;;;;;5044446;28;20029;-77
2023/07/07 01:13:31;;;;;;;2.65;1.63;;;19.50;49.30;;;;;;5056178;28;20032;-77
2023/07/07 01:16:15;;;;;;;5.13;1.70;;;19.50;49.40;;;;;;5015491;28;20039;-77
2023/07/07 01:18:54;;;;;;;2.00;1.48;;;19.50;49.60;;;;;;5042266;28;20059;-77
2023/07/07 01:21:31;;;;;;;2.90;2.00;;;19.40;49.50;;;;;;5037354;28;20075;-77
2023/07/07 01:24:30;;;;;;;2.35;1.60;;;19.40;49.60;;;;;;5057181;28;20101;-77
2023/07/07 01:27:21;;;;;;;2.38;1.60;;;19.40;49.80;;;;;;5040097;28;20106;-77
2023/07/07 01:30:04;;;;;;;2.63;1.77;;;19.30;49.70;;;;;;5052130;28;20049;-76
2023/07/07 01:32:31;;;;;;;2.40;1.70;;;19.30;49.70;;;;;;5043151;28;20060;-76
2023/07/07 01:35:03;;;;;;;4.40;2.03;;;19.30;49.80;;;;;;5039789;28;20523;-76
2023/07/07 01:37:30;;;;;;;2.33;1.63;;;19.20;49.70;;;;;;5047250;28;20040;-76
2023/07/07 01:39:56;;;;;;;3.22;1.65;;;19.10;49.70;;;;;;5043032;28;20076;-76
2023/07/07 01:42:47;;;;;;;2.70;1.70;;;19.10;49.80;;;;;;5056912;28;20036;-77
2023/07/07 01:45:25;;;;;;;2.72;1.60;;;19.10;50.10;;;;;;5050072;28;20032;-77
2023/07/07 01:48:02;;;;;;;2.00;1.80;;;19.10;50.00;;;;;;5036127;28;20574;-77
2023/07/07 01:50:32;;;;;;;2.17;1.70;;;19.10;50.10;;;;;;5052083;28;20051;-76
2023/07/07 01:53:05;;;;;;;2.08;1.88;;;19.00;50.00;;;;;;5034037;28;20201;-76
2023/07/07 01:55:39;;;;;;;2.40;1.95;;;19.00;50.10;;;;;;5038187;28;20036;-76
2023/07/07 01:58:09;;;;;;;2.70;1.50;;;19.00;50.20;;;;;;5036641;28;20043;-76
2023/07/07 02:00:36;;;;;;;3.88;2.33;;;19.00;50.30;;;;;;5043341;28;20037;-76
2023/07/07 02:03:08;;;;;;;4.50;2.10;;;19.00;50.40;;;;;;5039168;28;20056;-77
2023/07/07 02:05:35;;;;;;;2.47;2.23;;;18.90;50.40;;;;;;5029076;28;20040;-77
2023/07/07 02:08:05;;;;;;;1.30;1.20;;;18.90;50.50;;;;;;5047422;28;20444;-77
2023/07/07 02:10:31;;;;;;;2.15;1.90;;;18.90;50.60;;;;;;5052707;28;20033;-77
2023/07/07 02:12:57;;;;;;;1.75;1.65;;;18.80;50.50;;;;;;5031241;28;20068;-77
2023/07/07 02:15:24;;;;;;;3.22;2.45;;;18.80;50.60;;;;;;5033024;28;20025;-76
2023/07/07 02:17:50;;;;;;;2.38;1.85;;;18.80;50.80;;;;;;5038316;28;20105;-77
2023/07/07 02:20:16;;;;;;;3.60;1.77;;;18.70;50.70;;;;;;5027670;28;20031;-77
2023/07/07 02:22:43;;;;;;;3.42;1.80;;;18.70;50.80;;;;;;5035606;28;20653;-77
2023/07/07 02:25:09;;;;;;;2.15;1.73;;;18.70;50.90;;;;;;5029078;28;20039;-77
2023/07/07 02:27:35;;;;;;;4.22;2.13;;;18.70;51.00;;;;;;5046925;28;20263;-77
2023/07/07 02:30:02;;;;;;;3.13;2.10;;;18.60;50.90;;;;;;5045890;28;20034;-77
2023/07/07 02:32:28;;;;;;;2.42;1.88;;;18.60;51.00;;;;;;5052496;28;20784;-77
2023/07/07 02:34:55;;;;;;;3.20;2.25;;;18.60;51.10;;;;;;5010824;28;20112;-77
2023/07/07 02:37:22;;;;;;;3.35;2.30;;;18.50;51.00;;;;;;5055164;28;20537;-75
2023/07/07 02:39:48;;;;;;;1.88;1.63;;;18.50;51.20;;;;;;5049337;28;20510;-74
2023/07/07 02:42:15;;;;;;;2.20;1.88;;;18.50;51.20;;;;;;5049797;28;20056;-77
2023/07/07 02:44:42;;;;;;;3.45;1.73;;;18.40;51.20;;;;;;5049978;28;20063;-77
2023/07/07 02:47:09;;;;;;;2.28;2.03;;;18.40;51.30;;;;;;5037506;28;20118;-77
2023/07/07 02:49:35;;;;;;;1.80;1.60;;;18.30;51.20;;;;;;5049664;28;20055;-77
2023/07/07 02:52:06;;;;;;;3.20;1.85;;;18.30;51.30;;;;;;5055474;28;20025;-78
2023/07/07 02:54:33;;;;;;;2.90;2.00;;;18.30;51.40;;;;;;5048333;28;20024;-75
2023/07/07 02:57:02;;;;;;;2.30;1.65;;;18.30;51.50;;;;;;5046320;28;20552;-75
2023/07/07 02:59:28;;;;;;;2.50;1.80;;;18.20;51.40;;;;;;5032569;28;20038;-75
2023/07/07 03:01:54;;;;;;;3.55;1.92;;;18.20;51.60;;;;;;5032503;28;20036;-75
2023/07/07 03:04:20;;;;;;;2.55;1.63;;;18.10;51.40;;;;;;5041574;28;20127;-78
2023/07/07 03:06:47;;;;;;;2.38;1.67;;;18.10;51.50;;;;;;5040450;28;20120;-74
2023/07/07 03:09:14;;;;;;;3.85;1.80;;;18.10;51.60;;;;;;5048164;28;20511;-75
2023/07/07 03:11:44;;;;;;;2.50;1.75;;;18.00;51.60;;;;;;5049228;28;20040;-75
2023/07/07 03:14:10;;;;;;;2.03;1.83;;;18.00;51.70;;;;;;5036530;28;20516;-77
2023/07/07 03:16:46;;;;;;;2.10;1.50;;;17.90;51.60;;;;;;5036765;28;20037;-75
2023/07/07 03:19:15;;;;;;;3.45;1.88;;;18.00;51.90;;;;;;5035765;28;20196;-75
2023/07/07 03:21:48;;;;;;;2.88;1.50;;;17.90;51.80;;;;;;5041417;28;20032;-76
2023/07/07 03:24:27;;;;;;;3.47;1.83;;;17.90;51.90;;;;;;5032203;28;20462;-75
2023/07/07 03:26:53;;;;;;;3.00;1.77;;;17.80;51.80;;;;;;5031726;28;20084;-75
2023/07/07 03:29:21;;;;;;;3.65;1.88;;;17.80;51.90;;;;;;5036714;28;20049;-75
2023/07/07 03:31:47;;;;;;;3.78;2.28;;;17.80;52.00;;;;;;5052465;28;20037;-75
2023/07/07 03:34:14;;;;;;;2.67;1.92;;;17.70;51.90;;;;;;5018393;28;20060;-75
2023/07/07 03:36:43;;;;;;;3.00;1.75;;;17.70;52.00;;;;;;5040033;28;20053;-75
2023/07/07 03:39:09;;;;;;;2.15;1.80;;;17.70;52.10;;;;;;5047557;28;20064;-75
2023/07/07 03:41:36;;;;;;;2.67;1.80;;;17.70;52.20;;;;;;5036724;28;20488;-75
2023/07/07 03:44:04;;;;;;;3.17;1.80;;;17.70;52.30;;;;;;5047950;28;20183;-75
2023/07/07 03:46:34;;;;;;;2.53;1.63;;;17.60;52.20;;;;;;5033997;28;20057;-75
2023/07/07 03:49:00;;;;;;;2.70;1.52;;;17.60;52.20;;;;;;5046562;28;20124;-75
2023/07/07 03:51:34;;;;;;;1.90;1.80;;;17.60;52.30;;;;;;5039629;28;20036;-76
2023/07/07 03:54:04;;;;;;;3.28;1.55;;;17.60;52.40;;;;;;5040630;28;20068;-75
2023/07/07 03:56:31;;;;;;;3.00;1.50;;;17.60;52.30;;;;;;5029283;28;20090;-78
2023/07/07 03:58:57;;;;;;;2.75;1.73;;;17.60;52.40;;;;;;5041040;28;20399;-76
2023/07/07 04:01:23;;;;;;;2.78;1.58;;;17.60;52.40;;;;;;5043879;28;20114;-76
2023/07/07 04:03:51;;;;;;;2.85;1.55;;;17.50;52.30;;;;;;5037442;28;20047;-77
2023/07/07 04:06:18;;;;;;;2.17;1.58;;;17.50;52.40;;;;;;5028949;28;20120;-77
2023/07/07 04:08:44;;;;;;;2.60;1.70;;;17.40;52.30;;;;;;5012079;28;20037;-77
2023/07/07 04:11:12;;;;;;;2.70;1.85;;;17.50;52.60;;;;;;5056020;28;20029;-77
2023/07/07 04:13:40;;;;;;;3.08;1.70;;;17.40;52.50;;;;;;5023475;28;20072;-79
2023/07/07 04:16:11;;;;;;;2.75;1.73;;;17.40;52.50;;;;;;5046873;28;20056;-75
2023/07/07 04:18:39;;;;;;;2.30;1.98;;;17.30;52.50;;;;;;5054428;28;20032;-74
2023/07/07 04:21:07;;;;;;;3.80;2.33;;;17.30;52.50;;;;;;5029115;28;20485;-79
2023/07/07 04:23:36;;;;;;;2.90;2.17;;;17.30;52.60;;;;;;5011683;28;20033;-79
2023/07/07 04:26:02;;;;;;;2.03;1.70;;;17.30;52.70;;;;;;5055135;28;20064;-78
2023/07/07 04:28:30;;;;;;;2.42;1.90;;;17.30;52.70;;;;;;5060755;28;20049;-78
2023/07/07 04:30:57;;;;;;;1.80;1.70;;;17.30;52.70;;;;;;5049564;28;20127;-77
2023/07/07 04:33:25;;;;;;;2.72;1.92;;;17.20;53.20;;;;;;5031702;28;20133;-81
2023/07/07 04:35:53;;;;;;;3.05;1.98;;;17.20;52.70;;;;;;5045549;28;20029;-79
2023/07/07 04:38:20;;;;;;;2.85;1.80;;;17.20;52.70;;;;;;5045523;28;20472;-78
2023/07/07 04:40:47;;;;;;;3.08;2.03;;;17.20;52.80;;;;;;5046676;28;20500;-79
2023/07/07 04:43:13;;;;;;;2.70;2.17;;;17.20;52.80;;;;;;5037010;28;20163;-77
2023/07/07 04:45:39;;;;;;;2.75;2.05;;;17.20;52.80;;;;;;5041305;28;20559;-77
2023/07/07 04:48:05;;;;;;;4.00;1.77;;;17.20;52.90;;;;;;5057369;28;20040;-77
2023/07/07 04:50:34;;;;;;;3.05;1.80;;;17.20;52.90;;;;;;5038173;28;20116;-80
2023/07/07 04:53:00;;;;;;;2.35;2.03;;;17.20;53.00;;;;;;5057248;28;20201;-78
2023/07/07 04:55:26;;;;;;;3.33;1.95;;;17.20;53.00;;;;;;5061955;28;20036;-77
2023/07/07 04:57:52;;;;;;;3.15;1.80;;;17.20;53.00;;;;;;5039340;28;20174;-78
2023/07/07 05:00:18;;;;;;;2.95;1.83;;;17.20;53.00;;;;;;5033347;28;20384;-78
2023/07/07 05:02:44;;;;;;;4.20;1.52;;;17.20;53.00;;;;;;5047101;28;20041;-78
2023/07/07 05:05:11;;;;;;;1.73;1.58;;;17.30;53.30;;;;;;5035651;28;20036;-77
2023/07/07 05:07:37;;;;;;;2.35;1.55;;;17.30;53.20;;;;;;5026437;28;20037;-77
2023/07/07 05:10:04;;;;;;;2.72;1.52;;;17.30;53.20;;;;;;5046379;28;20040;-77
2023/07/07 05:12:30;;;;;;;2.72;1.80;;;17.40;53.40;;;;;;5038728;28;20158;-77
2023/07/07 05:14:56;;;;;;;2.40;1.60;;;17.40;53.40;;;;;;5038068;28;20131;-77
2023/07/07 05:17:22;;;;;;;1.75;1.48;;;17.40;53.40;;;;;;5041073;28;20170;-77
2023/07/07 05:19:48;;;;;;;1.98;1.60;;;17.40;53.40;;;;;;5047404;28;20166;-77
2023/07/07 05:22:14;;;;;;;2.97;1.40;;;17.50;53.60;;;;;;5051416;28;20044;-77
2023/07/07 05:24:40;;;;;;;2.33;1.25;;;17.50;53.50;;;;;;5056409;28;20032;-77
2023/07/07 05:27:06;;;;;;;1.98;1.73;;;17.60;53.70;;;;;;5021556;28;20350;-78
2023/07/07 05:29:32;;;;;;;2.65;1.60;;;17.60;53.60;;;;;;5045146;28;20040;-77
2023/07/07 05:31:58;;;;;;;2.05;1.85;;;17.70;53.80;;;;;;5054618;28;20049;-77
2023/07/07 05:34:23;;;;;;;2.78;1.67;;;17.80;53.90;;;;;;5030559;28;20043;-77
2023/07/07 05:36:49;;;;;;;2.42;1.80;;;17.90;54.10;;;;;;5040136;28;20032;-77
2023/07/07 05:39:15;;;;;;;1.77;1.52;;;18.00;54.10;;;;;;5042550;28;20335;-77
2023/07/07 05:41:41;;;;;;;2.78;1.30;;;18.10;54.20;;;;;;5042942;28;20064;-77
2023/07/07 05:44:07;;;;;;;1.60;1.50;;;18.20;54.30;;;;;;5047142;28;20651;-79
2023/07/07 05:46:33;;;;;;;2.92;2.35;;;18.30;54.40;;;;;;5036613;28;20040;-82
2023/07/07 05:48:59;;;;;;;3.22;1.90;;;18.40;54.50;;;;;;5049480;28;20045;-79
2023/07/07 05:51:25;;;;;;;2.38;1.75;;;18.50;54.60;;;;;;5047560;28;20528;-77
2023/07/07 05:53:51;;;;;;;2.83;1.55;;;18.70;55.00;;;;;;5049550;28;20442;-78
2023/07/07 05:56:23;;;;;;;3.15;1.65;;;18.90;55.40;;;;;;5041951;28;20036;-77
2023/07/07 05:58:54;;;;;;;2.07;1.50;;;19.10;55.90;;;;;;5050415;28;20601;-76
2023/07/07 06:01:20;;;;;;;2.45;1.75;;;19.30;56.10;;;;;;5052739;28;20030;-76
2023/07/07 06:03:46;;;;;;;1.85;1.42;;;19.50;56.20;;;;;;5045598;28;20040;-77
2023/07/07 06:06:13;;;;;;;1.77;1.52;;;19.80;56.50;;;;;;5029778;28;20856;-76
2023/07/07 06:08:40;;;;;;;3.50;1.73;;;20.00;56.50;;;;;;5034900;28;20044;-79
2023/07/07 06:11:06;;;;;;;3.17;1.48;;;20.30;56.80;;;;;;5022413;28;20037;-76
2023/07/07 06:13:33;;;;;;;2.67;1.60;;;20.50;56.70;;;;;;5039431;28;20036;-76
2023/07/07 06:15:59;;;;;;;3.67;1.40;;;20.80;56.80;;;;;;5049989;28;20029;-77
2023/07/07 06:18:25;;;;;;;2.42;1.73;;;21.00;56.60;;;;;;5054843;28;20044;-78
2023/07/07 06:20:54;;;;;;;2.08;1.48;;;21.30;56.60;;;;;;5046638;28;20045;-78
2023/07/07 06:23:21;;;;;;;3.03;2.00;;;21.50;56.60;;;;;;5043504;28;20037;-78
2023/07/07 06:25:49;;;;;;;3.90;1.95;;;21.60;56.40;;;;;;5044071;28;20024;-79
2023/07/07 06:28:16;;;;;;;2.05;1.58;;;21.70;56.30;;;;;;5034127;28;20377;-78
2023/07/07 06:30:50;;;;;;;2.78;1.80;;;21.90;56.30;;;;;;5042011;28;20045;-80
2023/07/07 06:33:17;;;;;;;3.72;2.03;;;22.30;56.40;;;;;;5047015;28;20599;-80
2023/07/07 06:35:44;;;;;;;1.73;1.23;;;22.60;56.20;;;;;;5045534;28;20324;-80
2023/07/07 06:38:10;;;;;;;1.27;1.15;;;23.10;56.00;;;;;;5030621;28;20040;-80
2023/07/07 06:40:36;;;;;;;3.92;2.00;;;23.50;55.60;;;;;;5046728;28;20040;-80
2023/07/07 06:43:02;;;;;;;2.55;1.60;;;24.10;55.60;;;;;;5046367;28;20056;-80
2023/07/07 06:45:31;;;;;;;2.20;1.55;;;24.50;55.20;;;;;;5021463;28;20043;-78
2023/07/07 06:47:58;;;;;;;4.43;1.63;;;25.00;55.00;;;;;;5043659;28;20033;-76
2023/07/07 06:50:32;;;;;;;2.72;1.70;;;25.40;54.20;;;;;;5048088;28;20139;-76
2023/07/07 06:52:58;;;;;;;1.75;1.13;;;25.80;53.50;;;;;;5040674;28;20087;-76
2023/07/07 06:55:30;;;;;;;3.67;2.03;;;26.20;52.80;;;;;;5040689;28;20028;-76
2023/07/07 06:57:59;;;;;;;1.38;1.20;;;26.70;52.20;;;;;;5037622;28;20051;-77
2023/07/07 07:00:25;;;;;;;2.78;1.67;;;27.20;51.60;;;;;;5052661;28;20041;-77
2023/07/07 07:02:51;;;;;;;2.08;1.55;;;27.60;51.00;;;;;;5031343;28;20048;-77
2023/07/07 07:05:17;;;;;;;1.20;1.10;;;28.10;50.40;;;;;;5034343;28;20504;-77
2023/07/07 07:07:44;;;;;;;2.15;1.52;;;28.60;49.80;;;;;;5048848;28;20401;-77
2023/07/07 07:10:11;;;;;;;1.35;1.10;;;29.10;49.20;;;;;;5039367;28;20074;-77
2023/07/07 07:12:37;;;;;;;2.40;1.45;;;29.50;48.50;;;;;;5016221;28;20037;-77
2023/07/07 07:15:04;;;;;;;2.08;0.93;;;29.90;47.90;;;;;;5041963;28;20032;-79
2023/07/07 07:17:30;;;;;;;2.25;1.30;;;30.30;47.30;;;;;;5016624;28;20047;-79
2023/07/07 07:19:56;;;;;;;2.35;1.25;;;30.60;46.80;;;;;;5046265;28;20505;-78
2023/07/07 07:22:22;;;;;;;5.68;1.65;;;30.90;46.30;;;;;;5022353;28;20225;-77
2023/07/07 07:24:48;;;;;;;1.77;1.10;;;31.30;45.80;;;;;;5048758;28;20531;-77
2023/07/07 07:27:14;;;;;;;2.45;1.50;;;31.60;45.40;;;;;;5034231;28;20082;-77
2023/07/07 07:29:44;;;;;;;1.40;1.00;;;31.80;45.40;;;;;;5041060;28;20653;-77
2023/07/07 07:32:10;;;;;;;1.92;1.35;;;31.80;45.30;;;;;;5039866;28;20761;-77
2023/07/07 07:34:36;;;;;;;1.50;1.25;;;31.80;45.40;;;;;;5053212;28;20078;-78
2023/07/07 07:37:06;;;;;;;1.35;1.10;;;31.90;45.40;;;;;;5050906;28;20036;-78
2023/07/07 07:39:33;;;;;;;1.35;1.00;;;32.10;45.20;;;;;;5046325;28;20047;-77
2023/07/07 07:41:59;;;;;;;1.55;1.00;;;32.40;44.60;;;;;;5050734;28;20045;-78
2023/07/07 07:44:26;;;;;;;3.05;1.45;;;32.90;43.80;;;;;;5052322;28;20039;-79
2023/07/07 07:46:55;;;;;;;2.47;1.15;;;33.40;42.80;;;;;;5051368;28;20116;-78
2023/07/07 07:49:21;;;;;;;3.30;1.67;;;33.80;41.90;;;;;;5052752;28;20058;-77
2023/07/07 07:51:51;;;;;;;1.67;0.90;;;34.30;41.30;;;;;;5053742;28;20085;-78
2023/07/07 07:54:18;;;;;;;2.58;1.05;;;34.80;40.60;;;;;;5033915;28;20044;-79
2023/07/07 07:56:46;;;;;;;1.67;1.10;;;35.20;39.90;;;;;;5052580;28;20041;-79
2023/07/07 07:59:14;;;;;;;2.25;1.00;;;35.60;39.40;;;;;;5040629;28;20032;-78
2023/07/07 08:01:41;;;;;;;1.73;1.10;;;36.00;38.90;;;;;;5023539;28;20039;-77
2023/07/07 08:04:07;;;;;;;1.42;0.80;;;36.40;38.50;;;;;;5051176;28;20029;-77
2023/07/07 08:06:34;;;;;;;3.38;1.00;;;36.60;38.10;;;;;;5052096;28;20068;-80
2023/07/07 08:09:01;;;;;;;1.13;1.02;;;36.70;37.90;;;;;;5035198;28;20055;-78
2023/07/07 08:11:46;;;;;;;1.00;0.90;;;36.50;38.10;;;;;;5043851;28;20029;-83
2023/07/07 08:14:14;;;;;;;1.75;0.90;;;36.00;38.10;;;;;;5012644;28;20040;-81
2023/07/07 08:16:40;;;;;;;1.17;0.98;;;35.60;39.00;;;;;;5045788;28;20041;-82
2023/07/07 08:19:06;;;;;;;1.75;1.15;;;35.20;39.50;;;;;;5045045;28;20033;-81
2023/07/07 08:21:35;;;;;;;1.27;0.90;;;34.80;39.70;;;;;;5040256;28;20044;-79
2023/07/07 08:24:02;;;;;;;1.33;0.80;;;34.50;40.10;;;;;;5035298;28;20024;-77
2023/07/07 08:26:32;;;;;;;1.10;0.90;;;34.20;40.20;;;;;;5048833;28;20094;-78
2023/07/07 08:28:58;;;;;;;0.98;0.95;;;34.00;40.40;;;;;;5015429;28;20041;-79
2023/07/07 08:31:27;;;;;;;1.67;0.70;;;33.80;40.50;;;;;;5029547;28;20855;-78
2023/07/07 08:33:56;;;;;;;1.13;0.93;;;33.60;40.60;;;;;;5044693;28;20064;-79
2023/07/07 08:36:22;;;;;;;0.80;0.70;;;33.50;40.60;;;;;;5034994;28;20516;-79
2023/07/07 08:38:48;;;;;;;1.42;1.10;;;33.30;40.70;;;;;;5048269;28;20039;-80
2023/07/07 08:41:14;;;;;;;2.03;0.70;;;33.20;40.70;;;;;;5054132;28;20037;-80
2023/07/07 08:43:41;;;;;;;0.98;0.85;;;33.30;40.70;;;;;;5042456;28;20043;-80
2023/07/07 08:46:52;;;;;;;1.08;0.90;;;33.30;40.60;;;;;;5045193;28;20032;-79
2023/07/07 08:49:32;;;;;;;1.27;1.00;;;33.40;40.40;;;;;;5034189;28;20481;-78
2023/07/07 08:52:16;;;;;;;0.70;0.70;;;33.50;40.40;;;;;;5053884;28;20078;-79
2023/07/07 08:55:08;;;;;;;0.90;0.80;;;33.50;40.20;;;;;;5037286;28;20107;-79
2023/07/07 08:57:43;;;;;;;0.90;0.90;;;33.50;40.10;;;;;;5050884;28;20053;-81
2023/07/07 09:00:25;;;;;;;1.17;0.77;;;33.50;40.10;;;;;;5046777;28;20036;-80
2023/07/07 09:03:37;;;;;;;1.02;0.80;;;33.50;40.00;;;;;;5023638;28;20028;-79
2023/07/07 09:06:34;;;;;;;1.27;0.88;;;33.50;39.80;;;;;;5043874;28;20045;-80
2023/07/07 09:09:12;;;;;;;1.08;0.90;;;33.50;39.90;;;;;;5027971;28;20625;-80
2023/07/07 09:11:38;;;;;;;2.50;1.40;;;33.40;39.90;;;;;;5044948;28;20032;-78
2023/07/07 09:14:07;;;;;;;1.30;1.02;;;33.50;39.70;;;;;;5046044;28;20609;-80
2023/07/07 09:16:35;;;;;;;1.45;1.00;;;33.40;39.60;;;;;;5043255;28;20103;-79
2023/07/07 09:19:10;;;;;;;1.65;1.08;;;33.40;39.50;;;;;;5039120;28;20123;-81
2023/07/07 09:21:36;;;;;;;1.73;1.00;;;33.40;39.40;;;;;;5051775;28;20104;-81
2023/07/07 09:24:22;;;;;;;1.90;1.23;;;33.50;39.40;;;;;;5044890;28;20434;-80
2023/07/07 09:26:51;;;;;;;1.35;1.10;;;33.50;39.20;;;;;;5053799;28;20519;-79
2023/07/07 09:29:25;;;;;;;1.73;1.30;;;33.60;39.30;;;;;;5041134;28;20124;-80
2023/07/07 09:31:51;;;;;;;1.48;1.00;;;33.60;39.10;;;;;;5042935;28;20148;-80
2023/07/07 09:34:18;;;;;;;1.65;1.20;;;33.60;39.10;;;;;;5029059;28;20088;-81
2023/07/07 09:37:21;;;;;;;4.45;1.20;;;33.60;38.90;;;;;;5044681;28;20526;-81
2023/07/07 09:40:13;;;;;;;2.53;1.20;;;33.60;38.80;;;;;;5020343;28;20124;-81
2023/07/07 09:42:55;;;;;;;1.85;1.20;;;33.70;38.80;;;;;;5027634;28;20057;-82
2023/07/07 09:45:34;;;;;;;1.42;0.90;;;33.70;38.80;;;;;;5052137;28;20025;-78
2023/07/07 09:48:25;;;;;;;1.35;1.25;;;33.70;38.80;;;;;;5044020;28;20033;-80
2023/07/07 09:51:28;;;;;;;2.08;1.10;;;33.80;38.60;;;;;;5045636;28;20040;-79
2023/07/07 09:53:55;;;;;;;2.33;1.23;;;33.80;38.60;;;;;;5032654;28;20451;-79
2023/07/07 09:56:38;;;;;;;2.25;1.25;;;33.90;38.60;;;;;;5047308;28;20143;-80
2023/07/07 09:59:17;;;;;;;1.33;1.10;;;33.90;38.40;;;;;;5031845;28;20460;-79
2023/07/07 10:01:50;;;;;;;3.45;1.30;;;34.00;38.40;;;;;;5028615;28;20507;-81
2023/07/07 10:04:33;;;;;;;2.20;1.48;;;34.10;38.40;;;;;;5036728;28;20021;-80
2023/07/07 10:07:07;;;;;;;1.42;1.33;;;34.10;38.30;;;;;;5040409;28;20047;-80
2023/07/07 10:09:39;;;;;;;1.20;1.10;;;34.20;38.20;;;;;;5023401;28;20496;-79
2023/07/07 10:12:13;;;;;;;2.83;1.30;;;34.20;38.10;;;;;;5048741;28;20452;-78
2023/07/07 10:14:50;;;;;;;2.50;1.40;;;34.30;37.90;;;;;;5049418;28;20036;-80
2023/07/07 10:17:50;;;;;;;1.50;1.08;;;34.40;37.90;;;;;;5030410;28;20040;-79
2023/07/07 10:20:20;;;;;;;1.17;1.00;;;34.50;37.70;;;;;;5031346;28;20114;-78
2023/07/07 10:22:58;;;;;;;2.65;1.50;;;34.60;37.80;;;;;;5038527;28;20128;-80
2023/07/07 10:25:30;;;;;;;3.08;1.70;;;34.70;37.70;;;;;;5042532;28;20450;-78
2023/07/07 10:28:01;;;;;;;1.95;1.40;;;34.70;37.50;;;;;;5035819;28;20041;-77
2023/07/07 10:30:31;;;;;;;2.03;1.27;;;34.80;38.10;;;;;;5038633;28;20329;-78
2023/07/07 10:32:57;;;;;;;1.75;1.30;;;34.90;37.40;;;;;;5032581;28;20045;-79
2023/07/07 10:35:24;;;;;;;1.67;1.10;;;35.00;37.40;;;;;;5022281;28;20291;-79
2023/07/07 10:37:53;;;;;;;2.40;1.70;;;35.00;37.30;;;;;;5036753;28;20037;-77
2023/07/07 10:40:25;;;;;;;4.03;1.88;;;35.10;37.30;;;;;;5039482;28;20041;-78
2023/07/07 10:42:56;;;;;;;3.38;1.60;;;35.10;37.10;;;;;;5037705;28;20033;-78
2023/07/07 10:45:25;;;;;;;2.63;1.23;;;35.20;36.90;;;;;;5053358;28;20044;-80
2023/07/07 10:47:51;;;;;;;4.03;1.73;;;35.30;36.80;;;;;;5044288;28;20025;-79
2023/07/07 10:50:21;;;;;;;2.65;1.98;;;35.30;36.70;;;;;;5029652;28;20044;-78
2023/07/07 10:53:08;;;;;;;3.40;1.27;;;35.40;36.60;;;;;;5049718;28;20119;-79
2023/07/07 10:56:19;;;;;;;1.88;1.52;;;35.50;36.40;;;;;;5042997;28;20056;-79
2023/07/07 10:59:14;;;;;;;1.73;1.45;;;35.60;36.40;;;;;;5049101;28;20674;-78
2023/07/07 11:02:21;;;;;;;2.10;1.27;;;35.80;36.40;;;;;;5009670;28;20075;-82
2023/07/07 11:05:29;;;;;;;3.20;1.30;;;35.90;36.30;;;;;;5038675;28;20044;-81
2023/07/07 11:08:21;;;;;;;2.97;1.17;;;36.00;36.10;;;;;;5036795;28;20505;-81
2023/07/07 11:11:09;;;;;;;1.77;1.10;;;36.20;36.10;;;;;;5047825;28;20055;-82
2023/07/07 11:13:47;;;;;;;2.45;1.33;;;36.30;36.10;;;;;;5038391;28;20304;-81
2023/07/07 11:16:51;;;;;;;1.48;1.35;;;36.40;36.00;;;;;;5056426;28;20037;-81
2023/07/07 11:19:44;;;;;;;1.63;1.10;;;36.60;35.80;;;;;;5033163;28;20459;-82
2023/07/07 11:22:39;;;;;;;3.47;1.30;;;36.70;35.80;;;;;;5013427;28;20235;-83
2023/07/07 11:25:14;;;;;;;1.73;1.38;;;36.90;35.60;;;;;;5043492;28;20036;-79
2023/07/07 11:28:15;;;;;;;5.10;1.90;;;37.00;35.40;;;;;;5041536;28;20040;-81
2023/07/07 11:31:05;;;;;;;4.10;1.65;;;37.10;35.30;;;;;;5036849;28;20079;-80
2023/07/07 11:33:47;;;;;;;3.03;1.60;;;37.20;35.30;;;;;;5046737;28;20057;-80
2023/07/07 11:36:38;;;;;;;1.50;1.40;;;37.20;35.20;;;;;;5034343;28;20044;-80
2023/07/07 11:39:22;;;;;;;2.10;1.60;;;37.10;35.20;;;;;;5048093;28;20025;-80
2023/07/07 11:41:51;;;;;;;2.53;1.63;;;36.80;36.10;;;;;;5042429;28;20036;-78
2023/07/07 11:44:34;;;;;;;1.90;1.15;;;36.70;35.70;;;;;;5038273;28;20520;-81
2023/07/07 11:47:15;;;;;;;2.60;1.38;;;36.50;35.80;;;;;;5037138;28;20047;-80
2023/07/07 11:50:00;;;;;;;1.85;1.70;;;36.50;35.70;;;;;;5047737;28;20545;-81
2023/07/07 11:53:00;;;;;;;1.58;1.13;;;36.60;35.70;;;;;;5031897;28;20033;-81
2023/07/07 11:55:37;;;;;;;1.52;1.35;;;36.80;35.70;;;;;;5048571;28;20054;-78
2023/07/07 11:58:26;;;;;;;1.55;1.45;;;37.00;35.60;;;;;;5032730;28;20061;-80
2023/07/07 12:01:00;;;;;;;1.40;1.30;;;37.10;35.40;;;;;;5056722;28;20041;-78
2023/07/07 12:03:41;;;;;;;1.75;1.48;;;37.20;35.30;;;;;;5056936;28;20044;-79
2023/07/07 12:06:21;;;;;;;2.10;1.40;;;37.20;35.20;;;;;;5033844;28;20036;-80
2023/07/07 12:09:25;;;;;;;2.28;1.30;;;37.30;35.20;;;;;;5034494;28;20549;-79
2023/07/07 12:12:08;;;;;;;1.65;1.30;;;37.30;35.10;;;;;;5056910;28;20375;-80
2023/07/07 12:15:02;;;;;;;2.78;1.27;;;37.40;35.20;;;;;;5032358;28;20142;-81
2023/07/07 12:17:37;;;;;;;1.60;1.40;;;37.40;35.10;;;;;;5048498;28;20772;-82
2023/07/07 12:20:16;;;;;;;1.98;1.10;;;37.50;35.10;;;;;;5039250;28;20056;-81
2023/07/07 12:23:00;;;;;;;1.65;1.40;;;37.50;34.90;;;;;;5049326;28;20033;-80
2023/07/07 12:25:33;;;;;;;2.00;1.60;;;37.60;35.00;;;;;;5040261;28;20040;-78
2023/07/07 12:27:59;;;;;;;2.33;1.42;;;37.70;34.90;;;;;;5053192;28;20037;-80
2023/07/07 12:30:43;;;;;;;1.38;1.27;;;37.80;34.80;;;;;;5025002;28;20705;-80
2023/07/07 12:33:11;;;;;;;2.72;1.67;;;37.80;34.60;;;;;;5033523;28;20634;-79
2023/07/07 12:35:56;;;;;;;1.92;1.50;;;38.00;34.50;;;;;;5031576;28;20047;-79
2023/07/07 12:38:34;;;;;;;1.38;1.27;;;38.10;34.30;;;;;;5019929;28;20407;-81
2023/07/07 12:41:09;;;;;;;10.27;1.70;;;38.20;34.30;;;;;;5024518;28;20044;-82
2023/07/07 12:43:43;;;;;;;3.28;1.75;;;38.30;34.10;;;;;;5026191;28;20036;-85
2023/07/07 12:46:24;;;;;;;2.33;1.90;;;38.30;33.90;;;;;;5022969;28;20045;-80
2023/07/07 12:48:54;;;;;;;2.15;1.88;;;38.20;33.90;;;;;;5038258;28;20088;-78
2023/07/07 12:51:21;;;;;;;1.42;1.33;;;38.10;34.10;;;;;;5025163;28;20040;-78
2023/07/07 12:53:52;;;;;;;1.20;1.10;;;37.90;34.10;;;;;;5023593;28;20104;-80
2023/07/07 12:56:26;;;;;;;1.92;1.33;;;37.70;34.20;;;;;;5021585;28;20048;-79
2023/07/07 12:58:57;;;;;;;3.53;1.50;;;37.70;34.30;;;;;;5032367;28;20041;-79
2023/07/07 13:01:32;;;;;;;1.50;1.40;;;37.80;34.30;;;;;;5029942;28;20040;-81
2023/07/07 13:04:07;;;;;;;1.23;1.13;;;38.00;34.20;;;;;;5023437;28;20495;-79
2023/07/07 13:06:37;;;;;;;3.08;1.38;;;38.20;34.10;;;;;;5018583;28;20810;-80
2023/07/07 13:09:12;;;;;;;2.55;1.30;;;38.40;34.00;;;;;;5026586;28;20140;-79
2023/07/07 13:11:43;;;;;;;1.30;1.20;;;38.60;33.80;;;;;;5013931;28;20042;-82
2023/07/07 13:14:28;;;;;;;1.43;1.33;;;38.70;33.80;;;;;;5036869;28;20037;-82